Time;durP1;ratioP1;P1;durP2;ratioP2;P2;SDS_P1;SDS_P2;PMS_P1;PMS_P2;Temp;Humidity;BMP_temperature;BMP_pressure;BME280_temperature;BME280_humidity;BME280_pressure;Samples;Min_cycle;Max_cycle;Signal;HPM_P1;HPM_P2
2023/02/16 00:00:27;;;;;;;15.05;4.28;;;;;;;;;;5021440;28;20049;-75
2023/02/16 00:02:53;;;;;;;11.13;4.22;;;;;;;;;;5018356;28;20125;-75
2023/02/16 00:05:25;;;;;;;11.93;4.50;;;;;;;;;;5010663;28;20117;-75
2023/02/16 00:07:52;;;;;;;11.65;4.35;;;;;;;;;;5026608;28;20038;-76
2023/02/16 00:10:17;;;;;;;11.52;4.00;;;;;;;;;;5008437;28;20386;-74
2023/02/16 00:15:26;;;;;;;10.48;3.67;;;;;;;;;;5011833;28;20052;-75
2023/02/16 00:17:53;;;;;;;10.25;4.50;;;;;;;;;;5013389;28;20030;-75
2023/02/16 00:20:19;;;;;;;12.63;4.10;;;;;;;;;;5011665;28;20041;-74
2023/02/16 00:22:44;;;;;;;9.43;3.80;;;;;;;;;;5013258;28;20113;-75
2023/02/16 00:25:10;;;;;;;9.15;4.20;;;;;;;;;;5007010;28;20101;-75
2023/02/16 00:27:36;;;;;;;10.43;3.75;;;;;;;;;;5012821;28;20431;-75
2023/02/16 00:30:05;;;;;;;17.98;3.88;;;;;;;;;;5021367;28;20034;-76
2023/02/16 00:32:31;;;;;;;10.18;3.97;;;;;;;;;;5012181;28;20389;-75
2023/02/16 00:34:56;;;;;;;9.18;3.67;;;;;;;;;;5007236;28;20043;-75
2023/02/16 00:37:21;;;;;;;20.05;3.78;;;;;;;;;;5013315;28;20421;-75
2023/02/16 00:39:47;;;;;;;9.35;3.25;;;;;;;;;;5018905;28;20470;-76
2023/02/16 00:42:17;;;;;;;7.03;3.45;;;;;;;;;;5013318;28;20488;-74
2023/02/16 00:44:46;;;;;;;4.50;2.50;;;;;;;;;;5014478;28;20029;-74
2023/02/16 00:47:21;;;;;;;4.20;2.40;;;;;;;;;;5011528;28;20044;-75
2023/02/16 00:49:50;;;;;;;11.70;2.72;;;;;;;;;;5030299;28;20038;-75
2023/02/16 00:52:32;;;;;;;10.02;2.53;;;;;;;;;;5013217;28;20112;-75
2023/02/16 00:54:59;;;;;;;5.35;2.75;;;;;;;;;;5040006;28;20033;-75
2023/02/16 00:57:25;;;;;;;6.85;2.40;;;;;;;;;;5009198;28;20045;-74
2023/02/16 00:59:57;;;;;;;10.02;2.58;;;;;;;;;;5025266;28;20451;-75
2023/02/16 01:02:22;;;;;;;2.22;1.10;;;;;;;;;;5020253;28;20397;-74
2023/02/16 01:04:48;;;;;;;3.65;1.67;;;;;;;;;;5015043;28;20038;-75
2023/02/16 01:12:43;;;;;;;9.15;1.83;;;;;;;;;;5016412;28;20053;-75
2023/02/16 01:15:12;;;;;;;8.25;1.67;;;;;;;;;;5025925;28;20041;-75
2023/02/16 01:17:37;;;;;;;4.50;1.77;;;;;;;;;;5015798;28;20470;-74
2023/02/16 01:20:09;;;;;;;4.18;2.00;;;;;;;;;;5017529;28;20087;-75
2023/02/16 01:22:34;;;;;;;5.90;1.60;;;;;;;;;;5017646;28;20508;-75
2023/02/16 01:25:00;;;;;;;6.00;1.40;;;;;;;;;;5023258;28;20038;-74
2023/02/16 01:27:25;;;;;;;10.95;1.80;;;;;;;;;;5018524;28;20034;-75
2023/02/16 01:29:51;;;;;;;5.70;1.55;;;;;;;;;;5011608;28;20045;-75
2023/02/16 01:32:16;;;;;;;5.10;1.58;;;;;;;;;;5015710;28;20048;-74
2023/02/16 01:34:41;;;;;;;2.80;1.40;;;;;;;;;;5014193;28;20504;-75
2023/02/16 01:37:13;;;;;;;6.90;1.60;;;;;;;;;;5014664;28;20029;-74
2023/02/16 01:39:39;;;;;;;2.58;1.35;;;;;;;;;;5020215;28;20033;-75
2023/02/16 01:42:04;;;;;;;4.05;1.70;;;;;;;;;;5019441;28;20116;-74
2023/02/16 01:44:50;;;;;;;6.10;1.58;;;;;;;;;;5013596;28;20030;-75
2023/02/16 01:47:27;;;;;;;6.70;2.25;;;;;;;;;;5029278;28;20041;-75
2023/02/16 01:49:53;;;;;;;9.30;2.03;;;;;;;;;;5011840;28;20508;-75
2023/02/16 01:52:30;;;;;;;5.03;1.83;;;;;;;;;;5006103;28;20042;-75
2023/02/16 01:55:01;;;;;;;7.57;1.75;;;;;;;;;;5020560;28;20041;-75
2023/02/16 01:57:30;;;;;;;4.13;1.55;;;;;;;;;;5019118;28;20425;-75
2023/02/16 01:59:55;;;;;;;4.28;1.65;;;;;;;;;;5021080;28;20425;-75
2023/02/16 02:02:23;;;;;;;6.32;1.95;;;;;;;;;;5014417;28;20096;-75
2023/02/16 02:07:52;;;;;;;2.72;1.67;;;;;;;;;;5014971;28;20061;-75
2023/02/16 02:10:22;;;;;;;4.70;2.00;;;;;;;;;;5015837;28;20485;-75
2023/02/16 02:12:55;;;;;;;3.20;1.50;;;;;;;;;;5031052;28;20049;-75
2023/02/16 02:15:23;;;;;;;4.15;2.03;;;;;;;;;;5004903;28;20397;-75
2023/02/16 02:17:48;;;;;;;7.18;1.95;;;;;;;;;;5011743;28;20383;-74
2023/02/16 02:20:20;;;;;;;2.78;1.35;;;;;;;;;;5031725;28;20045;-74
2023/02/16 02:23:30;;;;;;;6.30;1.70;;;;;;;;;;5020260;28;20038;-75
2023/02/16 02:26:02;;;;;;;8.82;1.88;;;;;;;;;;5012817;28;20037;-74
2023/02/16 02:29:12;;;;;;;3.30;1.52;;;;;;;;;;4999371;28;20042;-74
2023/02/16 02:32:02;;;;;;;4.30;1.55;;;;;;;;;;5003976;28;20057;-75
2023/02/16 02:34:46;;;;;;;6.00;2.20;;;;;;;;;;5015310;28;20087;-74
2023/02/16 02:37:17;;;;;;;5.85;1.40;;;;;;;;;;5014866;28;20052;-74
2023/02/16 02:39:42;;;;;;;6.10;1.80;;;;;;;;;;5019805;28;20461;-74
2023/02/16 02:42:26;;;;;;;5.50;1.70;;;;;;;;;;5009237;28;20053;-75
2023/02/16 02:44:57;;;;;;;5.55;1.98;;;;;;;;;;5011470;28;20037;-75
2023/02/16 02:47:22;;;;;;;6.50;1.60;;;;;;;;;;5029032;28;20113;-75
2023/02/16 02:49:52;;;;;;;4.75;1.75;;;;;;;;;;5014777;28;20109;-74
2023/02/16 02:52:18;;;;;;;8.40;1.88;;;;;;;;;;5022846;28;20490;-74
2023/02/16 03:00:40;;;;;;;3.67;1.50;;;;;;;;;;5013018;28;20160;-75
2023/02/16 03:03:17;;;;;;;6.70;1.50;;;;;;;;;;5020404;28;20039;-75
2023/02/16 03:05:52;;;;;;;6.38;1.45;;;;;;;;;;5014102;28;20038;-74
2023/02/16 03:08:22;;;;;;;7.55;1.70;;;;;;;;;;5008605;28;20056;-75
2023/02/16 03:13:38;;;;;;;10.23;1.85;;;;;;;;;;5015007;28;20037;-75
2023/02/16 03:16:09;;;;;;;5.18;1.60;;;;;;;;;;5010534;28;20053;-75
2023/02/16 03:29:34;;;;;;;4.63;1.30;;;;;;;;;;5006063;28;20165;-75
2023/02/16 03:32:00;;;;;;;3.58;1.75;;;;;;;;;;5014950;28;20456;-75
2023/02/16 03:34:26;;;;;;;7.00;1.85;;;;;;;;;;5016619;28;20425;-74
2023/02/16 03:36:59;;;;;;;6.82;2.00;;;;;;;;;;5019027;28;20038;-75
2023/02/16 03:39:27;;;;;;;4.88;1.73;;;;;;;;;;5025667;28;20053;-74
2023/02/16 03:41:54;;;;;;;4.85;2.78;;;;;;;;;;5010049;28;20042;-76
2023/02/16 03:44:20;;;;;;;5.22;2.20;;;;;;;;;;5011735;28;20041;-75
2023/02/16 03:46:48;;;;;;;9.77;3.15;;;;;;;;;;5008906;28;20029;-75
2023/02/16 03:49:14;;;;;;;2.78;1.85;;;;;;;;;;5010154;28;20496;-75
2023/02/16 03:51:39;;;;;;;4.82;2.33;;;;;;;;;;5009989;28;20100;-74
2023/02/16 03:54:05;;;;;;;4.05;2.35;;;;;;;;;;5013826;28;20026;-75
2023/02/16 03:56:30;;;;;;;4.10;2.40;;;;;;;;;;5008848;28;20046;-75
2023/02/16 03:58:56;;;;;;;7.40;2.08;;;;;;;;;;5013884;28;20486;-75
2023/02/16 04:01:21;;;;;;;8.32;2.45;;;;;;;;;;5013720;28;20113;-75
2023/02/16 04:03:47;;;;;;;7.00;3.20;;;;;;;;;;5016406;28;20038;-75
2023/02/16 04:06:12;;;;;;;9.00;2.92;;;;;;;;;;5006148;28;20394;-75
2023/02/16 04:08:38;;;;;;;8.80;2.38;;;;;;;;;;5017648;28;20037;-75
2023/02/16 04:12:34;;;;;;;5.50;2.05;;;;;;;;;;5002936;28;20043;-75
2023/02/16 04:13:48;;;;;;;4.45;2.53;;;;;;;;;;5001272;28;20073;-75
2023/02/16 04:16:14;;;;;;;4.00;2.40;;;;;;;;;;5010606;28;20066;-75
2023/02/16 04:18:39;;;;;;;10.40;2.72;;;;;;;;;;5014277;28;20045;-75
2023/02/16 04:21:05;;;;;;;6.03;2.28;;;;;;;;;;5020423;28;20492;-75
2023/02/16 04:23:30;;;;;;;11.93;2.92;;;;;;;;;;5008263;28;20042;-75
2023/02/16 04:25:55;;;;;;;9.70;3.00;;;;;;;;;;5010001;28;20432;-76
2023/02/16 04:28:21;;;;;;;10.55;2.47;;;;;;;;;;5008417;28;20032;-75
2023/02/16 04:30:46;;;;;;;6.53;2.58;;;;;;;;;;5014475;28;20038;-75
2023/02/16 04:33:12;;;;;;;6.63;2.40;;;;;;;;;;5031343;28;20478;-75
2023/02/16 04:35:37;;;;;;;7.78;2.47;;;;;;;;;;5012828;28;20462;-75
2023/02/16 04:38:03;;;;;;;4.85;2.58;;;;;;;;;;5012682;28;20097;-75
2023/02/16 04:40:28;;;;;;;5.03;2.25;;;;;;;;;;5008201;28;20041;-75
2023/02/16 04:42:53;;;;;;;8.30;2.35;;;;;;;;;;5016003;28;20038;-76
2023/02/16 04:45:19;;;;;;;7.40;2.08;;;;;;;;;;5018377;28;20038;-75
2023/02/16 04:47:44;;;;;;;12.52;2.90;;;;;;;;;;5006846;28;20095;-75
2023/02/16 04:50:10;;;;;;;7.28;2.78;;;;;;;;;;5018033;28;20049;-75
2023/02/16 04:52:36;;;;;;;4.47;2.47;;;;;;;;;;5015530;28;20076;-75
2023/02/16 04:55:02;;;;;;;8.30;2.63;;;;;;;;;;5022519;28;20054;-75
2023/02/16 04:57:27;;;;;;;11.93;2.60;;;;;;;;;;5019892;28;20046;-75
2023/02/16 04:59:53;;;;;;;8.13;3.00;;;;;;;;;;5013822;28;20037;-75
2023/02/16 05:02:18;;;;;;;10.27;3.38;;;;;;;;;;5019004;28;20117;-75
2023/02/16 05:04:44;;;;;;;10.95;2.60;;;;;;;;;;5022222;28;20083;-75
2023/02/16 05:07:09;;;;;;;4.65;2.25;;;;;;;;;;5016569;28;20042;-75
2023/02/16 05:09:34;;;;;;;9.13;2.70;;;;;;;;;;5020689;28;20045;-75
2023/02/16 05:14:44;;;;;;;9.98;2.50;;;;;;;;;;5018297;28;20080;-75
2023/02/16 05:17:20;;;;;;;4.45;2.05;;;;;;;;;;5017743;28;20057;-75
2023/02/16 05:19:51;;;;;;;11.20;2.30;;;;;;;;;;5028620;28;20108;-75
2023/02/16 05:22:18;;;;;;;6.93;2.72;;;;;;;;;;5017255;28;20037;-75
2023/02/16 05:24:43;;;;;;;8.60;2.47;;;;;;;;;;5028254;28;20033;-75
2023/02/16 05:27:21;;;;;;;8.20;2.30;;;;;;;;;;5033631;28;20045;-75
2023/02/16 05:29:47;;;;;;;8.48;2.47;;;;;;;;;;5023007;28;20034;-75
2023/02/16 05:32:12;;;;;;;8.40;2.40;;;;;;;;;;5014593;28;20109;-75
2023/02/16 05:34:38;;;;;;;6.65;2.10;;;;;;;;;;5008508;28;20038;-75
2023/02/16 05:37:03;;;;;;;12.50;3.00;;;;;;;;;;5017610;28;20038;-75
2023/02/16 05:39:29;;;;;;;9.90;2.70;;;;;;;;;;5032722;28;20041;-75
2023/02/16 05:41:54;;;;;;;5.63;2.22;;;;;;;;;;5016084;28;20041;-76
2023/02/16 05:44:20;;;;;;;6.25;1.95;;;;;;;;;;5033457;28;20037;-75
2023/02/16 05:46:45;;;;;;;10.77;2.38;;;;;;;;;;5016117;28;20406;-75
2023/02/16 05:49:11;;;;;;;11.63;2.50;;;;;;;;;;5017628;28;20049;-75
2023/02/16 05:51:37;;;;;;;12.18;3.08;;;;;;;;;;5015729;28;20143;-75
2023/02/16 05:54:03;;;;;;;6.28;1.90;;;;;;;;;;5026152;28;20473;-75
2023/02/16 05:56:28;;;;;;;7.20;1.98;;;;;;;;;;5013498;28;20438;-75
2023/02/16 05:58:54;;;;;;;11.73;2.58;;;;;;;;;;5014651;28;20030;-76
2023/02/16 06:01:20;;;;;;;5.63;1.63;;;;;;;;;;5018660;28;20042;-75
2023/02/16 06:03:45;;;;;;;7.32;2.28;;;;;;;;;;5012370;28;20113;-75
2023/02/16 06:06:11;;;;;;;13.25;2.53;;;;;;;;;;5014810;28;20451;-75
2023/02/16 06:08:37;;;;;;;9.40;1.98;;;;;;;;;;5028869;28;20461;-76
2023/02/16 06:11:05;;;;;;;7.80;2.10;;;;;;;;;;5011437;28;20121;-75
2023/02/16 06:13:32;;;;;;;3.38;1.50;;;;;;;;;;5000027;28;20470;-76
2023/02/16 06:15:57;;;;;;;3.60;1.60;;;;;;;;;;5029418;28;20120;-75
2023/02/16 06:18:23;;;;;;;7.43;2.00;;;;;;;;;;5007068;28;20145;-75
2023/02/16 06:20:49;;;;;;;13.05;1.73;;;;;;;;;;5013275;28;20069;-75
2023/02/16 06:23:15;;;;;;;3.47;1.83;;;;;;;;;;5007311;28;20045;-75
2023/02/16 06:25:42;;;;;;;8.50;1.85;;;;;;;;;;5030426;28;20047;-75
2023/02/16 06:28:08;;;;;;;6.20;1.80;;;;;;;;;;5024657;28;20037;-75
2023/02/16 06:30:35;;;;;;;6.43;2.25;;;;;;;;;;5013896;28;20053;-75
2023/02/16 06:33:01;;;;;;;3.85;1.60;;;;;;;;;;5023221;28;20084;-75
2023/02/16 06:35:27;;;;;;;4.97;1.15;;;;;;;;;;5014765;28;20038;-75
2023/02/16 06:37:53;;;;;;;8.10;1.55;;;;;;;;;;5030317;28;20049;-75
2023/02/16 06:40:18;;;;;;;7.50;1.42;;;;;;;;;;5031669;28;20052;-75
2023/02/16 06:42:44;;;;;;;4.90;1.63;;;;;;;;;;5015438;28;20449;-74
2023/02/16 06:45:09;;;;;;;7.60;2.45;;;;;;;;;;5014676;28;20081;-75
2023/02/16 06:47:36;;;;;;;7.03;2.05;;;;;;;;;;5009312;28;20104;-75
2023/02/16 06:50:03;;;;;;;5.40;1.88;;;;;;;;;;5022301;28;20046;-76
2023/02/16 06:52:28;;;;;;;2.30;1.52;;;;;;;;;;5014738;28;20482;-75
2023/02/16 06:54:54;;;;;;;4.40;1.42;;;;;;;;;;5016683;28;20044;-75
2023/02/16 06:57:19;;;;;;;8.75;1.58;;;;;;;;;;5010257;28;20069;-75
2023/02/16 06:59:44;;;;;;;5.47;1.88;;;;;;;;;;5010811;28;20045;-75
2023/02/16 07:02:10;;;;;;;10.80;1.70;;;;;;;;;;5020074;28;20037;-76
2023/02/16 07:04:36;;;;;;;2.63;1.60;;;;;;;;;;5002013;28;20034;-74
2023/02/16 07:07:01;;;;;;;6.65;1.90;;;;;;;;;;4995596;28;20046;-75
2023/02/16 07:09:27;;;;;;;5.00;1.67;;;;;;;;;;5013817;28;20038;-75
2023/02/16 07:11:53;;;;;;;6.72;1.63;;;;;;;;;;5013327;28;20494;-75
2023/02/16 07:14:18;;;;;;;3.20;1.88;;;;;;;;;;5015341;28;20091;-74
2023/02/16 07:16:44;;;;;;;2.88;1.55;;;;;;;;;;5015462;28;20042;-75
2023/02/16 07:19:09;;;;;;;2.95;1.25;;;;;;;;;;5003694;28;20072;-75
2023/02/16 07:21:35;;;;;;;3.00;1.85;;;;;;;;;;5021047;28;20042;-75
2023/02/16 07:24:00;;;;;;;4.05;2.30;;;;;;;;;;5013383;28;20045;-75
2023/02/16 07:26:26;;;;;;;3.60;1.85;;;;;;;;;;5014708;28;20037;-75
2023/02/16 07:28:51;;;;;;;5.60;2.10;;;;;;;;;;5014491;28;20037;-75
2023/02/16 07:31:17;;;;;;;8.85;2.30;;;;;;;;;;5017139;28;20509;-75
2023/02/16 07:33:43;;;;;;;3.90;2.10;;;;;;;;;;5011670;28;20030;-75
2023/02/16 07:36:09;;;;;;;5.18;2.33;;;;;;;;;;4998326;28;20041;-75
2023/02/16 07:38:36;;;;;;;3.47;2.03;;;;;;;;;;5001537;28;20045;-75
2023/02/16 07:41:01;;;;;;;6.82;2.88;;;;;;;;;;5017660;28;20040;-75
2023/02/16 07:43:27;;;;;;;3.75;2.05;;;;;;;;;;5013373;28;20038;-75
2023/02/16 07:45:52;;;;;;;3.38;2.15;;;;;;;;;;5015612;28;20397;-76
2023/02/16 07:48:19;;;;;;;5.38;2.67;;;;;;;;;;5009309;28;20061;-75
2023/02/16 07:50:44;;;;;;;6.03;2.22;;;;;;;;;;5017228;28;20125;-75
2023/02/16 07:53:10;;;;;;;4.35;1.67;;;;;;;;;;5013227;28;20113;-75
2023/02/16 07:55:42;;;;;;;7.22;2.60;;;;;;;;;;5010585;28;20601;-75
2023/02/16 07:58:08;;;;;;;3.90;2.42;;;;;;;;;;5012853;28;20030;-75
2023/02/16 08:00:34;;;;;;;4.95;2.35;;;;;;;;;;5014864;28;20048;-75
2023/02/16 08:02:59;;;;;;;5.78;2.50;;;;;;;;;;5012239;28;20120;-75
2023/02/16 08:05:24;;;;;;;5.90;2.15;;;;;;;;;;5012014;28;20048;-75
2023/02/16 08:07:50;;;;;;;4.95;2.20;;;;;;;;;;5013100;28;20049;-74
2023/02/16 08:10:16;;;;;;;5.97;2.10;;;;;;;;;;5011850;28;20040;-75
2023/02/16 08:12:41;;;;;;;4.85;1.63;;;;;;;;;;5002031;28;20122;-76
2023/02/16 08:15:08;;;;;;;8.23;2.40;;;;;;;;;;5008580;28;20044;-75
2023/02/16 08:17:34;;;;;;;3.88;2.47;;;;;;;;;;5008775;28;20105;-75
2023/02/16 08:20:00;;;;;;;5.05;2.30;;;;;;;;;;5017715;28;20579;-75
2023/02/16 08:22:25;;;;;;;5.22;2.58;;;;;;;;;;5013787;28;20390;-74
2023/02/16 08:24:50;;;;;;;6.80;2.80;;;;;;;;;;5002926;28;20058;-75
2023/02/16 08:27:16;;;;;;;7.25;2.47;;;;;;;;;;5003116;28;20065;-74
2023/02/16 08:29:41;;;;;;;3.17;2.10;;;;;;;;;;5010307;28;20108;-75
2023/02/16 08:32:10;;;;;;;4.78;2.05;;;;;;;;;;5018103;28;20026;-75
2023/02/16 08:34:37;;;;;;;6.53;2.03;;;;;;;;;;5015794;28;20048;-75
2023/02/16 08:37:03;;;;;;;5.72;2.80;;;;;;;;;;5013352;28;20041;-75
2023/02/16 08:39:31;;;;;;;6.45;3.20;;;;;;;;;;5010435;28;20030;-75
2023/02/16 08:41:58;;;;;;;8.63;3.97;;;;;;;;;;5007578;28;20451;-75
2023/02/16 08:44:24;;;;;;;7.00;4.00;;;;;;;;;;4998158;28;20049;-79
2023/02/16 08:46:52;;;;;;;5.35;2.45;;;;;;;;;;5021047;28;20029;-75
2023/02/16 08:49:19;;;;;;;6.32;2.78;;;;;;;;;;5026432;28;20069;-75
2023/02/16 08:51:50;;;;;;;8.23;3.00;;;;;;;;;;5011099;28;20042;-75
2023/02/16 08:54:21;;;;;;;6.97;2.28;;;;;;;;;;5005350;28;20052;-77
2023/02/16 08:56:48;;;;;;;5.30;2.58;;;;;;;;;;5024998;28;20042;-76
2023/02/16 08:59:18;;;;;;;3.47;2.20;;;;;;;;;;5002284;28;20042;-75
2023/02/16 09:01:44;;;;;;;4.13;2.90;;;;;;;;;;5004846;28;20038;-75
2023/02/16 09:04:11;;;;;;;4.88;2.00;;;;;;;;;;5006050;28;20125;-80
2023/02/16 09:06:39;;;;;;;5.82;2.08;;;;;;;;;;5005213;28;20034;-75
2023/02/16 09:09:05;;;;;;;3.95;2.72;;;;;;;;;;5008545;28;20361;-75
2023/02/16 09:11:30;;;;;;;5.25;2.40;;;;;;;;;;5003964;28;20400;-75
2023/02/16 09:13:56;;;;;;;4.72;1.60;;;;;;;;;;5000987;28;20029;-75
2023/02/16 09:16:23;;;;;;;4.35;1.85;;;;;;;;;;5020926;28;20065;-76
2023/02/16 09:18:51;;;;;;;2.70;1.55;;;;;;;;;;5008610;28;20044;-75
2023/02/16 09:21:21;;;;;;;3.65;1.58;;;;;;;;;;5014194;28;20168;-75
2023/02/16 09:23:48;;;;;;;4.18;1.63;;;;;;;;;;5009065;28;20026;-75
2023/02/16 09:26:18;;;;;;;2.17;1.00;;;;;;;;;;5013179;28;20041;-75
2023/02/16 09:28:44;;;;;;;1.83;1.00;;;;;;;;;;5004097;28;20110;-75
2023/02/16 09:31:24;;;;;;;8.35;4.75;;;;;;;;;;5021501;28;20112;-75
2023/02/16 09:33:50;;;;;;;2.20;1.15;;;;;;;;;;5006576;28;20100;-74
2023/02/16 09:36:17;;;;;;;1.15;0.70;;;;;;;;;;5022430;28;20099;-74
2023/02/16 09:38:42;;;;;;;1.95;1.00;;;;;;;;;;5000635;28;20045;-74
2023/02/16 09:41:22;;;;;;;4.03;0.95;;;;;;;;;;5028952;28;20124;-75
2023/02/16 09:43:53;;;;;;;3.72;2.00;;;;;;;;;;5010272;28;20383;-75
2023/02/16 09:46:20;;;;;;;3.53;1.73;;;;;;;;;;5011205;28;20034;-78
2023/02/16 09:48:47;;;;;;;1.10;0.70;;;;;;;;;;5009862;28;20026;-74
2023/02/16 09:51:37;;;;;;;2.08;1.05;;;;;;;;;;5011892;28;20045;-75
2023/02/16 09:54:34;;;;;;;0.70;0.50;;;;;;;;;;5002875;28;20478;-74
2023/02/16 09:57:22;;;;;;;0.75;0.50;;;;;;;;;;5003977;28;20503;-75
2023/02/16 09:59:52;;;;;;;2.72;1.35;;;;;;;;;;5009237;28;20041;-74
2023/02/16 10:02:22;;;;;;;3.42;2.17;;;;;;;;;;5011303;28;20029;-74
2023/02/16 10:05:19;;;;;;;5.75;1.92;;;;;;;;;;5013626;28;20061;-74
2023/02/16 10:08:09;;;;;;;3.33;1.92;;;;;;;;;;4999117;28;20045;-74
2023/02/16 10:11:00;;;;;;;1.75;0.90;;;;;;;;;;5006607;28;20049;-77
2023/02/16 10:13:36;;;;;;;2.45;0.95;;;;;;;;;;4993501;28;20557;-77
2023/02/16 10:16:03;;;;;;;1.20;0.70;;;;;;;;;;5013484;28;20046;-75
2023/02/16 10:18:32;;;;;;;1.05;0.60;;;;;;;;;;5005279;28;20049;-75
2023/02/16 10:21:02;;;;;;;1.58;0.80;;;;;;;;;;5007314;28;20042;-76
2023/02/16 10:23:34;;;;;;;2.08;1.10;;;;;;;;;;5003984;28;20033;-75
2023/02/16 10:26:12;;;;;;;1.23;0.55;;;;;;;;;;5010579;28;20185;-76
2023/02/16 10:28:51;;;;;;;1.20;0.68;;;;;;;;;;5010018;28;20029;-75
2023/02/16 10:31:36;;;;;;;1.67;0.80;;;;;;;;;;4998101;28;20543;-75
2023/02/16 10:34:13;;;;;;;1.75;0.60;;;;;;;;;;5009583;28;20040;-74
2023/02/16 10:37:00;;;;;;;1.75;0.90;;;;;;;;;;4990990;28;20034;-74
2023/02/16 10:39:47;;;;;;;1.05;0.50;;;;;;;;;;4991943;28;20037;-74
2023/02/16 10:42:34;;;;;;;0.52;0.45;;;;;;;;;;4994822;28;20048;-75
2023/02/16 10:45:42;;;;;;;0.98;0.60;;;;;;;;;;5010778;28;20033;-75
2023/02/16 10:48:09;;;;;;;2.53;0.63;;;;;;;;;;5009625;28;20057;-74
2023/02/16 10:50:57;;;;;;;1.40;0.80;;;;;;;;;;5008923;28;20053;-78
2023/02/16 10:53:43;;;;;;;1.20;0.70;;;;;;;;;;5007067;28;20034;-74
2023/02/16 10:56:37;;;;;;;1.92;0.80;;;;;;;;;;5023970;28;20025;-78
2023/02/16 10:59:04;;;;;;;;;;;;;;;;;;5005609;28;20386;-74
2023/02/16 11:01:38;;;;;;;1.98;1.10;;;;;;;;;;5010599;28;19917;-74
2023/02/16 11:04:04;;;;;;;1.38;0.70;;;;;;;;;;5008090;28;20049;-75
2023/02/16 11:06:29;;;;;;;0.88;0.47;;;;;;;;;;5008710;28;20492;-75
2023/02/16 11:08:58;;;;;;;0.95;0.50;;;;;;;;;;5025138;28;20042;-74
2023/02/16 11:11:26;;;;;;;3.35;0.90;;;;;;;;;;5010440;28;20038;-74
2023/02/16 11:14:03;;;;;;;0.98;0.60;;;;;;;;;;5025912;28;20022;-75
2023/02/16 11:16:30;;;;;;;1.48;0.63;;;;;;;;;;5010272;28;20822;-74
2023/02/16 11:19:07;;;;;;;1.70;0.60;;;;;;;;;;5009358;28;20037;-75
2023/02/16 11:21:50;;;;;;;1.33;0.57;;;;;;;;;;5009317;28;20046;-75
2023/02/16 11:24:31;;;;;;;1.27;0.63;;;;;;;;;;5009438;28;20029;-74
2023/02/16 11:27:12;;;;;;;1.80;0.80;;;;;;;;;;5010812;28;20290;-77
2023/02/16 11:29:39;;;;;;;1.27;0.60;;;;;;;;;;4997093;28;20036;-74
2023/02/16 11:32:07;;;;;;;2.80;1.30;;;;;;;;;;5010170;28;20038;-74
2023/02/16 11:35:05;;;;;;;3.00;1.40;;;;;;;;;;5009732;28;20041;-74
2023/02/16 11:37:32;;;;;;;3.17;1.58;;;;;;;;;;4971839;28;20495;-74
2023/02/16 11:40:00;;;;;;;1.48;0.80;;;;;;;;;;4999714;28;20038;-75
2023/02/16 11:42:30;;;;;;;7.78;2.80;;;;;;;;;;5005184;28;20045;-75
2023/02/16 11:44:57;;;;;;;2.35;0.80;;;;;;;;;;5018755;28;20117;-75
2023/02/16 11:47:30;;;;;;;1.95;0.60;;;;;;;;;;5008360;28;20025;-74
2023/02/16 11:50:18;;;;;;;2.20;1.02;;;;;;;;;;5007836;28;20036;-77
2023/02/16 11:52:47;;;;;;;1.88;0.88;;;;;;;;;;5006853;28;20125;-77
2023/02/16 11:55:25;;;;;;;2.50;0.90;;;;;;;;;;5001301;28;20401;-74
2023/02/16 11:57:51;;;;;;;17.33;4.43;;;;;;;;;;5000937;28;20049;-75
2023/02/16 12:00:21;;;;;;;2.70;1.13;;;;;;;;;;5010250;28;20034;-76
2023/02/16 12:02:53;;;;;;;2.53;0.95;;;;;;;;;;5007343;28;20050;-75
2023/02/16 12:05:25;;;;;;;3.63;0.70;;;;;;;;;;5013514;28;20686;-74
2023/02/16 12:08:25;;;;;;;1.33;0.75;;;;;;;;;;4992046;28;20379;-74
2023/02/16 12:10:57;;;;;;;0.88;0.60;;;;;;;;;;5005924;28;20614;-74
2023/02/16 12:13:28;;;;;;;0.25;0.25;;;;;;;;;;5009895;28;20100;-74
2023/02/16 12:16:25;;;;;;;0.20;0.20;;;;;;;;;;4998774;28;20478;-75
2023/02/16 12:19:12;;;;;;;0.50;0.40;;;;;;;;;;5007121;28;20494;-75
2023/02/16 12:21:47;;;;;;;3.03;0.70;;;;;;;;;;4997638;28;20109;-74
2023/02/16 12:24:30;;;;;;;2.75;0.63;;;;;;;;;;5023695;28;20048;-75
2023/02/16 12:27:26;;;;;;;0.85;0.52;;;;;;;;;;4999216;28;20049;-75
2023/02/16 12:29:59;;;;;;;2.00;0.70;;;;;;;;;;4985802;28;20099;-75
2023/02/16 12:32:47;;;;;;;;;;;;;;;;;;5024355;28;20056;-74
2023/02/16 12:35:22;;;;;;;1.20;0.70;;;;;;;;;;5007507;28;19953;-74
2023/02/16 12:38:29;;;;;;;2.30;0.80;;;;;;;;;;5008114;28;20065;-74
2023/02/16 12:41:13;;;;;;;1.23;0.70;;;;;;;;;;5003614;28;20057;-74
2023/02/16 12:43:51;;;;;;;2.45;0.80;;;;;;;;;;4992445;28;20420;-74
2023/02/16 12:46:30;;;;;;;0.90;0.60;;;;;;;;;;4999132;28;20128;-74
2023/02/16 12:49:12;;;;;;;1.55;0.70;;;;;;;;;;5022997;28;20096;-75
2023/02/16 12:51:42;;;;;;;1.67;0.63;;;;;;;;;;5023541;28;20058;-75
2023/02/16 12:54:15;;;;;;;0.65;0.40;;;;;;;;;;4996595;28;20042;-74
2023/02/16 12:56:44;;;;;;;0.77;0.50;;;;;;;;;;5011250;28;20057;-75
2023/02/16 12:59:24;;;;;;;0.73;0.50;;;;;;;;;;5011132;28;20038;-74
2023/02/16 13:01:51;;;;;;;1.00;0.57;;;;;;;;;;4995407;28;20038;-74
2023/02/16 13:04:25;;;;;;;1.65;0.63;;;;;;;;;;5009152;28;20486;-74
2023/02/16 13:07:00;;;;;;;1.23;0.60;;;;;;;;;;5000434;28;20042;-74
2023/02/16 13:09:57;;;;;;;0.73;0.57;;;;;;;;;;5012219;28;20046;-74
2023/02/16 13:12:31;;;;;;;2.05;0.70;;;;;;;;;;5001549;28;20466;-74
2023/02/16 13:15:21;;;;;;;1.83;0.70;;;;;;;;;;5011482;28;20124;-75
2023/02/16 13:17:50;;;;;;;3.88;0.77;;;;;;;;;;4991659;28;20096;-74
2023/02/16 13:20:18;;;;;;;1.67;0.80;;;;;;;;;;5011560;28;20034;-75
2023/02/16 13:23:02;;;;;;;1.00;0.50;;;;;;;;;;5012075;28;20119;-76
2023/02/16 13:25:55;;;;;;;1.13;0.65;;;;;;;;;;5010591;28;20605;-74
2023/02/16 13:28:36;;;;;;;1.40;0.70;;;;;;;;;;5005622;28;20046;-76
2023/02/16 13:31:39;;;;;;;0.52;0.50;;;;;;;;;;5012714;28;20049;-76
2023/02/16 13:34:23;;;;;;;1.60;0.70;;;;;;;;;;5009992;28;20060;-74
2023/02/16 13:37:34;;;;;;;1.13;0.60;;;;;;;;;;5007588;28;20048;-75
2023/02/16 13:39:59;;;;;;;1.60;0.75;;;;;;;;;;5002078;28;20050;-74
2023/02/16 13:42:58;;;;;;;0.77;0.50;;;;;;;;;;5012172;28;20038;-74
2023/02/16 13:45:26;;;;;;;2.40;0.80;;;;;;;;;;5012797;28;20042;-74
2023/02/16 13:47:53;;;;;;;1.20;0.63;;;;;;;;;;4948948;28;20067;-76
2023/02/16 13:50:22;;;;;;;2.70;1.15;;;;;;;;;;4998645;28;20092;-75
2023/02/16 13:52:50;;;;;;;4.07;1.27;;;;;;;;;;5010761;28;20026;-76
2023/02/16 13:55:36;;;;;;;1.45;0.75;;;;;;;;;;5008202;28;20559;-74
2023/02/16 13:58:14;;;;;;;1.67;0.85;;;;;;;;;;5007106;28;20069;-74
2023/02/16 14:00:47;;;;;;;2.22;1.10;;;;;;;;;;5004421;28;20042;-75
2023/02/16 14:03:15;;;;;;;3.90;1.27;;;;;;;;;;5010433;28;20038;-74
2023/02/16 14:05:43;;;;;;;2.47;1.00;;;;;;;;;;5008388;28;20037;-74
2023/02/16 14:08:20;;;;;;;3.38;1.27;;;;;;;;;;5010582;28;20100;-74
2023/02/16 14:10:54;;;;;;;3.25;0.90;;;;;;;;;;5011590;28;20132;-74
2023/02/16 14:13:22;;;;;;;2.22;0.95;;;;;;;;;;5005455;28;20072;-74
2023/02/16 14:15:52;;;;;;;2.90;1.15;;;;;;;;;;5008502;28;20468;-75
2023/02/16 14:18:56;;;;;;;1.80;0.90;;;;;;;;;;5020500;28;20052;-75
2023/02/16 14:21:43;;;;;;;2.08;1.10;;;;;;;;;;4982631;28;20050;-74
2023/02/16 14:24:32;;;;;;;2.08;0.93;;;;;;;;;;5004904;28;20375;-74
2023/02/16 14:27:05;;;;;;;3.10;1.40;;;;;;;;;;5000527;28;20054;-75
2023/02/16 14:29:55;;;;;;;2.75;0.93;;;;;;;;;;5004436;28;20749;-74
2023/02/16 14:32:32;;;;;;;3.38;1.10;;;;;;;;;;4999766;28;20073;-74
2023/02/16 14:35:06;;;;;;;4.25;1.20;;;;;;;;;;4986037;28;20034;-75
2023/02/16 14:37:58;;;;;;;3.50;1.70;;;;;;;;;;5009540;28;20037;-74
2023/02/16 14:40:54;;;;;;;2.80;1.10;;;;;;;;;;5009842;28;20429;-74
2023/02/16 14:43:28;;;;;;;1.95;1.05;;;;;;;;;;5011388;28;20410;-74
2023/02/16 14:46:13;;;;;;;3.70;1.00;;;;;;;;;;5011098;28;20042;-77
2023/02/16 14:48:50;;;;;;;1.27;0.65;;;;;;;;;;5010147;28;20065;-76
2023/02/16 14:51:51;;;;;;;1.85;0.90;;;;;;;;;;5010120;28;20137;-75
2023/02/16 14:54:30;;;;;;;4.00;2.00;;;;;;;;;;4996481;28;20701;-74
2023/02/16 14:57:00;;;;;;;3.00;1.42;;;;;;;;;;5008126;28;20041;-74
2023/02/16 14:59:33;;;;;;;2.47;1.20;;;;;;;;;;5025048;28;20050;-74
2023/02/16 15:01:59;;;;;;;3.50;1.40;;;;;;;;;;5010851;28;20073;-75
2023/02/16 15:04:30;;;;;;;2.25;1.00;;;;;;;;;;4999092;28;20077;-74
2023/02/16 15:06:56;;;;;;;4.53;1.15;;;;;;;;;;4996749;28;20044;-74
2023/02/16 15:09:29;;;;;;;2.50;1.00;;;;;;;;;;5009500;28;20470;-74
2023/02/16 15:14:44;;;;;;;1.63;0.90;;;;;;;;;;5007940;28;20064;-74
2023/02/16 15:17:20;;;;;;;2.30;0.98;;;;;;;;;;5006139;28;20040;-74
2023/02/16 15:19:47;;;;;;;2.70;1.00;;;;;;;;;;5021981;28;20125;-77
2023/02/16 15:22:24;;;;;;;2.40;1.20;;;;;;;;;;5010933;28;20045;-75
2023/02/16 15:24:58;;;;;;;5.03;1.13;;;;;;;;;;4997029;28;20100;-75
2023/02/16 15:27:24;;;;;;;3.05;1.40;;;;;;;;;;5004653;28;20030;-74
2023/02/16 15:30:08;;;;;;;3.22;1.30;;;;;;;;;;5010756;28;20120;-75
2023/02/16 15:32:34;;;;;;;2.08;1.15;;;;;;;;;;5010254;28;20037;-74
2023/02/16 15:35:09;;;;;;;3.08;1.25;;;;;;;;;;5008863;28;20048;-75
2023/02/16 15:37:36;;;;;;;1.80;0.90;;;;;;;;;;5010166;28;20054;-74
2023/02/16 15:40:18;;;;;;;2.28;1.10;;;;;;;;;;5009860;28;20641;-73
2023/02/16 15:42:44;;;;;;;1.80;0.90;;;;;;;;;;5005621;28;20022;-73
2023/02/16 15:45:31;;;;;;;2.17;0.93;;;;;;;;;;5006277;28;20512;-73